createdAt,value
2022-12-03T00:01:15.274Z,8.73
2022-12-03T00:03:42.460Z,8.75
2022-12-03T00:06:09.653Z,8.00
2022-12-03T00:08:36.552Z,7.78
2022-12-03T00:11:03.434Z,8.02
2022-12-03T00:13:30.363Z,8.77
2022-12-03T00:15:57.399Z,7.60
2022-12-03T00:18:24.372Z,8.07
2022-12-03T00:20:51.415Z,7.95
2022-12-03T00:23:18.440Z,8.20
2022-12-03T00:25:45.374Z,8.13
2022-12-03T00:28:12.346Z,8.07
2022-12-03T00:30:39.340Z,8.00
2022-12-03T00:33:06.216Z,7.55
2022-12-03T00:35:33.163Z,6.82
2022-12-03T00:38:00.085Z,6.80
2022-12-03T00:40:26.955Z,6.88
2022-12-03T00:42:53.938Z,7.40
2022-12-03T00:45:20.864Z,7.55
2022-12-03T00:47:47.743Z,6.63
2022-12-03T00:50:14.696Z,7.75
2022-12-03T00:52:41.648Z,7.50
2022-12-03T00:55:09.119Z,7.13
2022-12-03T00:57:35.979Z,7.32
2022-12-03T01:00:03.706Z,6.95
2022-12-03T01:02:30.570Z,6.75
2022-12-03T01:04:57.635Z,8.30
2022-12-03T01:07:25.438Z,7.45
2022-12-03T01:09:52.481Z,7.82
2022-12-03T01:12:19.388Z,8.23
2022-12-03T01:14:46.373Z,8.05
2022-12-03T01:17:13.400Z,7.93
2022-12-03T01:19:46.508Z,7.55
2022-12-03T01:22:15.046Z,8.13
2022-12-03T01:24:41.989Z,8.68
2022-12-03T01:27:08.919Z,8.70
2022-12-03T01:29:36.019Z,9.10
2022-12-03T01:32:19.175Z,8.88
2022-12-03T01:34:49.618Z,9.15
2022-12-03T01:37:16.906Z,9.07
2022-12-03T01:39:43.778Z,9.55
2022-12-03T01:42:23.951Z,9.18
2022-12-03T01:44:55.525Z,9.32
2022-12-03T01:47:25.681Z,9.63
2022-12-03T01:49:56.640Z,8.50
2022-12-03T01:52:30.612Z,9.63
2022-12-03T01:54:58.487Z,10.45
2022-12-03T01:57:27.552Z,10.20
2022-12-03T01:59:55.728Z,10.00
2022-12-03T02:02:24.666Z,9.85
2022-12-03T02:04:53.273Z,10.57
2022-12-03T02:07:34.777Z,9.95
2022-12-03T02:10:02.275Z,10.18
2022-12-03T02:12:33.830Z,10.25
2022-12-03T02:15:00.808Z,9.50
2022-12-03T02:17:27.849Z,9.77
2022-12-03T02:19:55.068Z,9.30
2022-12-03T02:22:27.977Z,9.90
2022-12-03T02:25:13.548Z,9.77
2022-12-03T02:27:40.651Z,10.15
2022-12-03T02:30:08.355Z,9.65
2022-12-03T02:32:35.263Z,8.85
2022-12-03T02:35:02.201Z,10.15
2022-12-03T02:37:35.817Z,9.48
2022-12-03T02:40:04.884Z,9.88
2022-12-03T02:42:37.714Z,9.43
2022-12-03T02:45:12.725Z,10.05
2022-12-03T02:47:44.749Z,8.95
2022-12-03T02:52:39.829Z,8.82
2022-12-03T02:55:06.979Z,9.13
2022-12-03T02:57:34.893Z,8.93
2022-12-03T03:00:02.052Z,9.52
2022-12-03T03:02:29.055Z,8.27
2022-12-03T03:04:56.343Z,8.38
2022-12-03T03:07:23.372Z,8.23
2022-12-03T03:09:50.270Z,7.90
2022-12-03T03:12:17.254Z,8.27
2022-12-03T03:14:44.283Z,8.30
2022-12-03T03:17:11.589Z,8.10
2022-12-03T03:19:38.517Z,8.10
2022-12-03T03:22:05.553Z,7.20
2022-12-03T03:24:32.421Z,7.82
2022-12-03T03:26:59.348Z,8.27
2022-12-03T03:29:26.233Z,7.95
2022-12-03T03:31:53.140Z,7.50
2022-12-03T03:34:20.081Z,7.40
2022-12-03T03:36:47.035Z,7.45
2022-12-03T03:39:13.966Z,7.47
2022-12-03T03:41:41.138Z,7.05
2022-12-03T03:44:08.105Z,7.30
2022-12-03T03:46:35.383Z,7.13
2022-12-03T03:49:03.789Z,7.18
2022-12-03T03:51:30.897Z,7.25
2022-12-03T03:53:57.794Z,6.68
2022-12-03T03:56:24.679Z,7.00
2022-12-03T03:58:51.562Z,7.57
2022-12-03T04:01:18.560Z,7.07
2022-12-03T04:03:45.627Z,7.00
2022-12-03T04:06:12.599Z,7.07
2022-12-03T04:08:39.510Z,7.07
2022-12-03T04:11:25.225Z,6.47
2022-12-03T04:13:52.215Z,7.03
2022-12-03T04:16:19.226Z,7.15
2022-12-03T04:18:47.376Z,7.82
2022-12-03T04:21:34.362Z,7.63
2022-12-03T04:24:01.917Z,8.10
2022-12-03T04:26:47.401Z,7.28
2022-12-03T04:29:18.002Z,7.63
2022-12-03T04:32:03.486Z,7.45
2022-12-03T04:34:48.989Z,7.15
2022-12-03T04:37:15.938Z,8.15
2022-12-03T04:39:42.824Z,8.15
2022-12-03T04:42:09.703Z,8.27
2022-12-03T04:44:36.673Z,8.77
2022-12-03T04:47:17.326Z,8.65
2022-12-03T04:49:45.901Z,8.38
2022-12-03T04:52:13.484Z,9.57
2022-12-03T04:54:40.476Z,8.48
2022-12-03T04:57:07.920Z,9.27
2022-12-03T04:59:35.142Z,9.77
2022-12-03T05:02:02.361Z,10.13
2022-12-03T05:04:29.363Z,9.45
2022-12-03T05:06:56.266Z,9.27
2022-12-03T05:09:23.249Z,9.98
2022-12-03T05:11:50.176Z,9.75
2022-12-03T05:14:17.100Z,10.80
2022-12-03T05:16:44.066Z,10.48
2022-12-03T05:19:11.093Z,10.32
2022-12-03T05:21:38.084Z,10.75
2022-12-03T05:24:05.442Z,10.50
2022-12-03T05:26:32.299Z,10.20
2022-12-03T05:29:01.344Z,11.00
2022-12-03T05:31:28.346Z,11.38
2022-12-03T05:33:55.300Z,11.55
2022-12-03T05:36:22.340Z,11.20
2022-12-03T05:38:49.212Z,11.65
2022-12-03T05:41:34.807Z,11.18
2022-12-03T05:44:01.774Z,11.15
2022-12-03T05:46:28.724Z,11.15
2022-12-03T05:48:55.695Z,12.10
2022-12-03T05:51:22.637Z,12.18
2022-12-03T05:53:49.528Z,11.32
2022-12-03T05:56:16.459Z,10.27
2022-12-03T05:58:43.364Z,10.38
2022-12-03T06:01:10.303Z,10.80
2022-12-03T06:03:37.314Z,10.43
2022-12-03T06:06:04.906Z,10.85
2022-12-03T06:08:32.030Z,9.48
2022-12-03T06:10:58.962Z,10.00
2022-12-03T06:13:25.886Z,10.40
2022-12-03T06:15:52.914Z,9.32
2022-12-03T06:18:19.968Z,9.35
2022-12-03T06:20:46.887Z,9.27
2022-12-03T06:23:13.887Z,9.38
2022-12-03T06:25:40.844Z,8.60
2022-12-03T06:28:07.796Z,8.93
2022-12-03T06:30:36.021Z,9.45
2022-12-03T06:33:03.107Z,9.05
2022-12-03T06:35:30.186Z,9.05
2022-12-03T06:37:57.195Z,8.80
2022-12-03T06:40:25.128Z,9.35
2022-12-03T06:42:52.455Z,9.23
2022-12-03T06:45:19.448Z,9.38
2022-12-03T06:47:46.578Z,8.95
2022-12-03T06:50:13.918Z,8.40
2022-12-03T06:52:40.870Z,8.13
2022-12-03T06:55:08.347Z,8.25
2022-12-03T06:57:35.313Z,8.70
2022-12-03T07:00:03.742Z,8.30
2022-12-03T07:02:30.926Z,8.18
2022-12-03T07:04:58.263Z,8.32
2022-12-03T07:07:25.445Z,8.77
2022-12-03T07:09:52.413Z,8.70
2022-12-03T07:12:19.357Z,8.23
2022-12-03T07:14:46.230Z,8.55
2022-12-03T07:17:13.265Z,7.88
2022-12-03T07:19:40.738Z,7.95
2022-12-03T07:22:07.599Z,9.00
2022-12-03T07:24:34.584Z,8.23
2022-12-03T07:27:01.631Z,8.18
2022-12-03T07:29:28.537Z,9.05
2022-12-03T07:31:55.523Z,8.20
2022-12-03T07:34:22.572Z,7.30
2022-12-03T07:36:49.538Z,7.43
2022-12-03T07:39:16.532Z,8.52
2022-12-03T07:41:43.466Z,7.47
2022-12-03T07:44:14.262Z,7.18
2022-12-03T07:46:42.196Z,7.47
2022-12-03T07:49:09.452Z,7.53
2022-12-03T07:51:36.472Z,7.30
2022-12-03T07:54:03.659Z,7.80
2022-12-03T07:56:30.580Z,7.55
2022-12-03T07:58:57.491Z,7.70
2022-12-03T08:01:24.397Z,7.13
2022-12-03T08:03:51.360Z,7.13
2022-12-03T08:06:18.274Z,6.85
2022-12-03T08:08:45.177Z,6.60
2022-12-03T08:11:14.171Z,6.53
2022-12-03T08:13:41.094Z,7.32
2022-12-03T08:16:26.633Z,6.65
2022-12-03T08:18:58.832Z,6.25
2022-12-03T08:21:36.530Z,7.05
2022-12-03T08:24:23.948Z,6.10
2022-12-03T08:26:50.870Z,6.18
2022-12-03T08:29:18.962Z,7.32
2022-12-03T08:31:54.844Z,6.43
2022-12-03T08:34:24.234Z,6.30
2022-12-03T08:36:52.498Z,5.95
2022-12-03T08:39:29.891Z,6.28
2022-12-03T08:42:37.294Z,6.82
2022-12-03T08:45:32.185Z,6.15
2022-12-03T08:48:00.918Z,6.10
2022-12-03T08:50:41.857Z,6.38
2022-12-03T08:53:21.228Z,6.57
2022-12-03T08:55:52.819Z,6.53
2022-12-03T08:58:32.214Z,6.35
2022-12-03T09:01:13.057Z,5.55
2022-12-03T09:03:46.502Z,5.78
2022-12-03T09:06:13.420Z,5.95
2022-12-03T09:08:40.292Z,6.85
2022-12-03T09:11:07.196Z,5.57
2022-12-03T09:13:34.150Z,5.82
2022-12-03T09:16:01.168Z,5.93
2022-12-03T09:18:28.096Z,5.45
2022-12-03T09:20:56.570Z,5.47
2022-12-03T09:23:23.838Z,5.82
2022-12-03T09:25:50.734Z,5.82
2022-12-03T09:28:17.736Z,5.45
2022-12-03T09:30:44.647Z,5.28
2022-12-03T09:33:11.655Z,5.72
2022-12-03T09:35:38.722Z,5.20
2022-12-03T09:38:05.842Z,5.22
2022-12-03T09:40:32.826Z,5.00
2022-12-03T09:42:59.799Z,5.78
2022-12-03T09:45:26.715Z,4.97
2022-12-03T09:47:53.718Z,4.95
2022-12-03T09:50:25.167Z,5.30
2022-12-03T09:52:55.111Z,5.13
2022-12-03T09:55:23.645Z,5.20
2022-12-03T09:57:53.007Z,5.18
2022-12-03T10:00:24.940Z,4.78
2022-12-03T10:02:53.071Z,5.03
2022-12-03T10:05:20.507Z,5.28
2022-12-03T10:07:51.374Z,5.32
2022-12-03T10:10:22.861Z,5.00
2022-12-03T10:12:51.323Z,5.00
2022-12-03T10:15:20.065Z,4.75
2022-12-03T10:17:47.149Z,5.07
2022-12-03T10:20:15.558Z,4.95
2022-12-03T10:22:43.020Z,4.60
2022-12-03T10:25:11.784Z,5.35
2022-12-03T10:27:38.867Z,4.78
2022-12-03T10:30:19.694Z,5.32
2022-12-03T10:32:51.079Z,5.35
2022-12-03T10:35:20.792Z,4.70
2022-12-03T10:38:24.673Z,5.30
2022-12-03T10:40:51.633Z,5.20
2022-12-03T10:43:18.544Z,4.93
2022-12-03T10:45:50.007Z,5.18
2022-12-03T10:48:25.652Z,4.90
2022-12-03T10:50:53.500Z,4.95
2022-12-03T10:53:24.714Z,4.85
2022-12-03T10:55:52.215Z,4.25
2022-12-03T10:58:22.013Z,4.88
2022-12-03T11:00:50.169Z,4.90
2022-12-03T11:03:26.742Z,4.90
2022-12-03T11:05:54.351Z,4.63
2022-12-03T11:08:22.830Z,4.68
2022-12-03T11:11:08.952Z,4.85
2022-12-03T11:13:35.829Z,4.57
2022-12-03T11:16:04.336Z,4.95
2022-12-03T11:18:37.384Z,4.88
2022-12-03T11:21:11.849Z,4.63
2022-12-03T11:23:45.009Z,4.05
2022-12-03T11:26:19.996Z,4.70
2022-12-03T11:28:47.071Z,5.55
2022-12-03T11:31:43.621Z,4.88
2022-12-03T11:34:19.866Z,5.20
2022-12-03T11:37:11.494Z,5.03
2022-12-03T11:39:55.897Z,5.38
2022-12-03T11:42:25.758Z,4.80
2022-12-03T11:45:04.808Z,5.10
2022-12-03T11:47:59.938Z,5.07
2022-12-03T11:50:40.199Z,5.13
2022-12-03T11:53:16.828Z,4.88
2022-12-03T11:55:51.874Z,4.85
2022-12-03T11:58:29.655Z,5.22
2022-12-03T12:00:58.337Z,4.68
2022-12-03T12:03:27.288Z,4.55
2022-12-03T12:06:11.177Z,5.07
2022-12-03T12:08:59.009Z,5.15
2022-12-03T12:11:26.827Z,5.13
2022-12-03T12:13:58.572Z,5.38
2022-12-03T12:16:51.324Z,5.50
2022-12-03T12:19:31.944Z,5.40
2022-12-03T12:22:26.898Z,5.88
2022-12-03T12:24:55.186Z,5.70
2022-12-03T12:27:37.783Z,5.25
2022-12-03T12:30:19.235Z,5.75
2022-12-03T12:32:50.500Z,5.53
2022-12-03T12:35:22.334Z,5.38
2022-12-03T12:38:11.018Z,5.70
2022-12-03T12:40:42.649Z,6.05
2022-12-03T12:43:15.475Z,6.32
2022-12-03T12:45:44.801Z,6.13
2022-12-03T12:48:28.601Z,6.38
2022-12-03T12:51:22.082Z,6.10
2022-12-03T12:53:49.106Z,6.68
2022-12-03T12:56:26.169Z,6.82
2022-12-03T12:58:53.521Z,6.90
2022-12-03T13:01:22.440Z,7.13
2022-12-03T13:03:50.718Z,7.45
2022-12-03T13:06:18.266Z,7.57
2022-12-03T13:08:46.271Z,8.35
2022-12-03T13:11:34.604Z,8.02
2022-12-03T13:14:21.382Z,8.70
2022-12-03T13:16:49.549Z,8.90
2022-12-03T13:19:21.645Z,8.35
2022-12-03T13:21:48.907Z,9.20
2022-12-03T13:24:29.354Z,9.45
2022-12-03T13:26:56.905Z,9.73
2022-12-03T13:29:23.833Z,9.88
2022-12-03T13:32:01.878Z,10.45
2022-12-03T13:34:33.409Z,10.88
2022-12-03T13:37:01.282Z,9.80
2022-12-03T13:39:32.281Z,10.65
2022-12-03T13:42:31.626Z,9.70
2022-12-03T13:44:58.603Z,10.13
2022-12-03T13:47:25.599Z,10.10
2022-12-03T13:50:03.685Z,10.00
2022-12-03T13:52:31.063Z,10.65
2022-12-03T13:54:58.045Z,10.15
2022-12-03T13:57:25.402Z,10.90
2022-12-03T13:59:52.787Z,10.20
2022-12-03T14:02:20.176Z,10.25
2022-12-03T14:04:47.212Z,10.25
2022-12-03T14:07:14.125Z,9.50
2022-12-03T14:09:41.545Z,9.70
2022-12-03T14:12:26.497Z,11.00
2022-12-03T14:14:53.948Z,9.85
2022-12-03T14:17:20.999Z,10.50
2022-12-03T14:19:47.879Z,10.18
2022-12-03T14:22:14.908Z,10.23
2022-12-03T14:24:41.943Z,10.07
2022-12-03T14:27:08.826Z,10.25
2022-12-03T14:29:35.755Z,11.05
2022-12-03T14:32:02.676Z,10.07
2022-12-03T14:34:29.718Z,10.50
2022-12-03T14:36:56.730Z,11.07
2022-12-03T14:39:23.714Z,10.05
2022-12-03T14:42:09.039Z,10.93
2022-12-03T14:44:35.952Z,11.35
2022-12-03T14:47:02.827Z,10.20
2022-12-03T14:49:29.764Z,10.90
2022-12-03T14:51:56.731Z,10.30
2022-12-03T14:54:23.846Z,10.80
2022-12-03T14:56:50.771Z,11.38
2022-12-03T14:59:18.528Z,11.10
2022-12-03T15:01:47.616Z,10.73
2022-12-03T15:04:14.720Z,11.02
2022-12-03T15:06:42.401Z,11.30
2022-12-03T15:09:09.389Z,11.38
2022-12-03T15:11:40.166Z,10.73
2022-12-03T15:14:10.371Z,11.05
2022-12-03T15:16:39.925Z,10.98
2022-12-03T15:19:06.909Z,11.25
2022-12-03T15:21:35.047Z,10.10
2022-12-03T15:24:02.648Z,10.13
2022-12-03T15:26:29.693Z,10.95
2022-12-03T15:28:56.614Z,10.35
2022-12-03T15:31:23.872Z,10.95
2022-12-03T15:33:50.822Z,10.95
2022-12-03T15:36:17.782Z,10.68
2022-12-03T15:38:44.775Z,9.95
2022-12-03T15:41:21.482Z,11.05
2022-12-03T15:43:49.056Z,10.55
2022-12-03T15:46:16.121Z,10.32
2022-12-03T15:48:43.374Z,11.38
2022-12-03T15:51:10.447Z,11.68
2022-12-03T15:53:37.494Z,10.38
2022-12-03T15:56:04.620Z,11.25
2022-12-03T15:58:31.570Z,12.10
2022-12-03T16:00:58.822Z,11.38
2022-12-03T16:03:26.025Z,11.23
2022-12-03T16:05:53.921Z,11.00
2022-12-03T16:08:21.197Z,11.48
2022-12-03T16:10:48.113Z,11.05
2022-12-03T16:13:15.007Z,11.05
2022-12-03T16:15:42.085Z,11.95
2022-12-03T16:18:09.296Z,11.73
2022-12-03T16:20:36.261Z,12.50
2022-12-03T16:23:03.275Z,11.77
2022-12-03T16:25:30.203Z,12.60
2022-12-03T16:27:57.210Z,12.07
2022-12-03T16:30:24.821Z,12.27
2022-12-03T16:32:51.951Z,12.02
2022-12-03T16:35:18.838Z,12.50
2022-12-03T16:37:45.843Z,12.13
2022-12-03T16:40:12.859Z,12.55
2022-12-03T16:42:39.856Z,11.77
2022-12-03T16:45:10.399Z,12.20
2022-12-03T16:47:37.674Z,12.10
2022-12-03T16:50:06.621Z,11.48
2022-12-03T16:52:33.927Z,12.25
2022-12-03T16:55:01.010Z,12.73
2022-12-03T16:57:33.400Z,12.30
2022-12-03T17:00:01.025Z,12.30
2022-12-03T17:02:28.582Z,12.57
2022-12-03T17:04:55.505Z,11.73
2022-12-03T17:07:22.457Z,11.85
2022-12-03T17:09:49.606Z,12.48
2022-12-03T17:12:16.597Z,12.23
2022-12-03T17:14:43.561Z,11.98
2022-12-03T17:17:10.447Z,12.48
2022-12-03T17:19:37.345Z,13.38
2022-12-03T17:22:04.334Z,12.20
2022-12-03T17:24:31.236Z,13.52
2022-12-03T17:26:58.348Z,12.90
2022-12-03T17:29:25.345Z,13.00
2022-12-03T17:31:52.360Z,12.82
2022-12-03T17:34:19.451Z,12.52
2022-12-03T17:36:46.444Z,12.75
2022-12-03T17:39:13.381Z,11.98
2022-12-03T17:41:40.422Z,13.05
2022-12-03T17:44:10.717Z,12.68
2022-12-03T17:46:39.254Z,13.27
2022-12-03T17:49:06.271Z,13.10
2022-12-03T17:51:33.264Z,13.35
2022-12-03T17:54:00.871Z,13.05
2022-12-03T17:56:27.820Z,13.05
2022-12-03T17:58:54.732Z,13.30
2022-12-03T18:01:21.838Z,13.07
2022-12-03T18:03:48.915Z,13.02
2022-12-03T18:06:16.157Z,13.65
2022-12-03T18:08:43.321Z,12.70
2022-12-03T18:11:10.275Z,12.85
2022-12-03T18:13:37.285Z,12.90
2022-12-03T18:16:04.462Z,13.85
2022-12-03T18:18:31.425Z,13.18
2022-12-03T18:21:02.435Z,13.50
2022-12-03T18:23:29.569Z,13.90
2022-12-03T18:25:56.852Z,14.95
2022-12-03T18:28:23.887Z,14.55
2022-12-03T18:30:52.699Z,13.93
2022-12-03T18:33:21.303Z,14.73
2022-12-03T18:35:48.418Z,13.80
2022-12-03T18:38:15.774Z,13.55
2022-12-03T18:40:43.444Z,14.75
2022-12-03T18:43:14.578Z,14.07
2022-12-03T18:45:42.019Z,14.02
2022-12-03T18:48:13.310Z,14.25
2022-12-03T18:50:40.452Z,14.85
2022-12-03T18:53:13.007Z,15.45
2022-12-03T18:55:40.155Z,14.45
2022-12-03T18:58:07.180Z,15.30
2022-12-03T19:00:35.802Z,15.43
2022-12-03T19:03:04.203Z,14.80
2022-12-03T19:05:32.657Z,14.75
2022-12-03T19:07:59.892Z,14.40
2022-12-03T19:10:26.992Z,15.05
2022-12-03T19:12:53.993Z,14.27
2022-12-03T19:15:20.953Z,14.07
2022-12-03T19:17:49.275Z,14.95
2022-12-03T19:20:16.286Z,13.70
2022-12-03T19:22:43.226Z,14.48
2022-12-03T19:25:10.267Z,15.10
2022-12-03T19:27:37.181Z,14.57
2022-12-03T19:30:04.563Z,14.50
2022-12-03T19:32:31.668Z,13.73
2022-12-03T19:34:58.641Z,14.43
2022-12-03T19:37:25.513Z,13.48
2022-12-03T19:39:55.763Z,13.60
2022-12-03T19:42:23.014Z,14.30
2022-12-03T19:44:49.933Z,14.55
2022-12-03T19:47:16.865Z,13.57
2022-12-03T19:49:44.120Z,14.15
2022-12-03T19:52:11.102Z,14.20
2022-12-03T19:54:38.027Z,13.25
2022-12-03T19:57:04.964Z,13.85
2022-12-03T19:59:31.943Z,13.82
2022-12-03T20:01:59.015Z,13.18
2022-12-03T20:04:26.801Z,13.95
2022-12-03T20:06:53.727Z,13.75
2022-12-03T20:09:22.559Z,13.63
2022-12-03T20:11:50.793Z,13.68
2022-12-03T20:14:17.886Z,13.80
2022-12-03T20:16:45.215Z,14.35
2022-12-03T20:19:13.846Z,13.80
2022-12-03T20:21:41.355Z,14.02
2022-12-03T20:24:08.624Z,14.02
2022-12-03T20:26:35.594Z,14.18
2022-12-03T20:29:02.698Z,13.73
2022-12-03T20:31:30.576Z,13.90
2022-12-03T20:33:59.662Z,13.90
2022-12-03T20:36:27.197Z,14.15
2022-12-03T20:38:55.155Z,14.13
2022-12-03T20:41:22.332Z,13.82
2022-12-03T20:43:49.422Z,15.43
2022-12-03T20:46:24.021Z,13.60
2022-12-03T20:48:51.055Z,14.70
2022-12-03T20:51:19.453Z,14.25
2022-12-03T20:53:46.473Z,15.00
2022-12-03T20:56:20.640Z,14.82
2022-12-03T20:58:48.820Z,14.50
2022-12-03T21:01:35.937Z,14.57
2022-12-03T21:04:04.758Z,14.35
2022-12-03T21:06:32.074Z,14.20
2022-12-03T21:08:59.315Z,14.13
2022-12-03T21:11:29.732Z,13.82
2022-12-03T21:13:57.179Z,13.05
2022-12-03T21:16:52.165Z,14.18
2022-12-03T21:19:13.767Z,13.20
2022-12-03T21:21:40.727Z,13.70
2022-12-03T21:24:07.855Z,13.23
2022-12-03T21:26:34.774Z,14.15
2022-12-03T21:29:01.835Z,12.88
2022-12-03T21:31:30.382Z,12.20
2022-12-03T21:33:57.364Z,13.70
2022-12-03T21:36:25.008Z,12.85
2022-12-03T21:38:52.075Z,14.35
2022-12-03T21:41:19.044Z,13.30
2022-12-03T21:43:46.013Z,13.85
2022-12-03T21:47:10.610Z,13.98
2022-12-03T21:49:02.109Z,13.57
2022-12-03T21:51:29.113Z,12.93
2022-12-03T21:53:56.089Z,12.90
2022-12-03T21:56:23.342Z,13.52
2022-12-03T21:58:50.325Z,13.07
2022-12-03T22:01:19.928Z,14.20
2022-12-03T22:03:47.078Z,13.40
2022-12-03T22:06:14.374Z,13.95
2022-12-03T22:08:41.763Z,13.75
2022-12-03T22:11:12.806Z,14.65
2022-12-03T22:13:40.263Z,13.87
2022-12-03T22:16:08.890Z,13.68
2022-12-03T22:18:36.076Z,13.52
2022-12-03T22:21:06.996Z,13.93
2022-12-03T22:23:34.062Z,14.52
2022-12-03T22:26:03.076Z,13.48
2022-12-03T22:28:30.342Z,13.68
2022-12-03T22:30:57.276Z,15.52
2022-12-03T22:33:24.417Z,14.60
2022-12-03T22:35:58.906Z,14.48
2022-12-03T22:38:25.860Z,13.77
2022-12-03T22:40:53.026Z,15.18
2022-12-03T22:43:20.300Z,14.50
2022-12-03T22:45:47.389Z,14.93
2022-12-03T22:48:14.697Z,14.63
2022-12-03T22:50:45.320Z,14.30
2022-12-03T22:53:12.799Z,13.93
2022-12-03T22:55:39.966Z,15.05
2022-12-03T22:58:07.527Z,14.52
2022-12-03T23:00:36.465Z,13.90
2022-12-03T23:03:03.682Z,13.70
2022-12-03T23:05:32.854Z,13.68
2022-12-03T23:08:00.352Z,14.57
2022-12-03T23:10:30.987Z,14.80
2022-12-03T23:13:00.901Z,13.95
2022-12-03T23:15:28.151Z,13.55
2022-12-03T23:17:55.289Z,13.45
2022-12-03T23:20:22.460Z,13.75
2022-12-03T23:22:49.448Z,14.25
2022-12-03T23:25:17.621Z,14.30
2022-12-03T23:27:44.853Z,13.77
2022-12-03T23:30:12.251Z,14.10
2022-12-03T23:32:39.250Z,13.43
2022-12-03T23:35:06.777Z,13.30
2022-12-03T23:37:33.722Z,13.07
2022-12-03T23:40:00.732Z,13.48
2022-12-03T23:42:27.699Z,13.60
2022-12-03T23:44:54.898Z,13.52
2022-12-03T23:47:21.887Z,13.60
2022-12-03T23:49:48.860Z,13.32
2022-12-03T23:52:15.858Z,13.80
2022-12-03T23:54:42.967Z,12.40
2022-12-03T23:57:10.001Z,13.10
2022-12-03T23:59:36.976Z,13.68
